createdAt,value
2023-02-19T00:00:03.969Z,81.20
2023-02-19T00:00:26.701Z,67.40
2023-02-19T00:00:49.403Z,83.80
2023-02-19T00:01:13.590Z,62.60
2023-02-19T00:01:37.610Z,75.80
2023-02-19T00:02:00.255Z,99.90
2023-02-19T00:02:22.928Z,99.90
2023-02-19T00:02:46.905Z,99.90
2023-02-19T00:03:09.620Z,99.90
2023-02-19T00:03:32.360Z,99.90
2023-02-19T00:03:56.490Z,99.90
2023-02-19T00:04:20.357Z,99.90
2023-02-19T00:04:44.686Z,99.90
2023-02-19T00:05:07.932Z,99.90
2023-02-19T00:05:30.739Z,20.70
2023-02-19T00:05:53.452Z,1.00
2023-02-19T00:06:16.175Z,1.00
2023-02-19T00:06:38.888Z,7.90
2023-02-19T00:07:01.637Z,48.70
2023-02-19T00:07:24.348Z,23.10
2023-02-19T00:07:47.037Z,66.10
2023-02-19T00:08:09.758Z,99.90
2023-02-19T00:08:32.448Z,99.90
2023-02-19T00:08:55.360Z,99.90
2023-02-19T00:09:19.097Z,99.90
2023-02-19T00:09:41.788Z,99.90
2023-02-19T00:10:04.682Z,99.90
2023-02-19T00:10:27.443Z,99.90
2023-02-19T00:10:50.163Z,29.30
2023-02-19T00:11:16.548Z,31.90
2023-02-19T00:11:39.446Z,35.40
2023-02-19T00:12:02.138Z,61.90
2023-02-19T00:12:24.835Z,73.00
2023-02-19T00:12:47.526Z,37.50
2023-02-19T00:13:10.502Z,90.80
2023-02-19T00:13:36.004Z,62.20
2023-02-19T00:13:59.002Z,80.90
2023-02-19T00:14:21.972Z,99.90
2023-02-19T00:14:44.822Z,99.90
2023-02-19T00:15:07.987Z,99.90
2023-02-19T00:15:32.660Z,99.90
2023-02-19T00:15:56.703Z,99.90
2023-02-19T00:16:20.612Z,99.90
2023-02-19T00:16:43.413Z,99.90
2023-02-19T00:17:06.121Z,99.90
2023-02-19T00:17:28.808Z,99.90
2023-02-19T00:17:51.764Z,99.90
2023-02-19T00:18:14.473Z,99.90
2023-02-19T00:18:37.282Z,99.90
2023-02-19T00:19:00.336Z,1.00
2023-02-19T00:19:23.695Z,1.00
2023-02-19T00:19:47.774Z,1.00
2023-02-19T00:20:10.897Z,1.00
2023-02-19T00:20:33.541Z,1.00
2023-02-19T00:20:57.491Z,1.00
2023-02-19T00:21:20.446Z,1.00
2023-02-19T00:21:43.201Z,1.00
2023-02-19T00:22:05.929Z,1.00
2023-02-19T00:22:28.799Z,1.00
2023-02-19T00:22:51.426Z,1.00
2023-02-19T00:23:14.208Z,1.00
2023-02-19T00:23:37.267Z,1.00
2023-02-19T00:24:00.953Z,9.40
2023-02-19T00:24:23.669Z,27.20
2023-02-19T00:24:48.409Z,75.20
2023-02-19T00:25:11.977Z,82.20
2023-02-19T00:25:37.334Z,67.00
2023-02-19T00:26:17.296Z,99.90
2023-02-19T00:26:41.559Z,99.90
2023-02-19T00:27:04.338Z,99.90
2023-02-19T00:27:27.003Z,99.90
2023-02-19T00:27:50.061Z,99.90
2023-02-19T00:28:12.908Z,99.90
2023-02-19T00:28:35.692Z,99.90
2023-02-19T00:28:58.702Z,99.90
2023-02-19T00:29:21.924Z,99.90
2023-02-19T00:29:44.773Z,99.90
2023-02-19T00:30:09.006Z,99.90
2023-02-19T00:30:31.712Z,99.90
2023-02-19T00:30:54.686Z,99.90
2023-02-19T00:31:19.333Z,99.90
2023-02-19T00:31:42.714Z,99.90
2023-02-19T00:32:05.822Z,99.90
2023-02-19T00:32:28.498Z,99.90
2023-02-19T00:32:51.987Z,99.90
2023-02-19T00:33:14.803Z,99.90
2023-02-19T00:33:37.721Z,99.90
2023-02-19T00:34:02.049Z,99.90
2023-02-19T00:34:24.769Z,93.90
2023-02-19T00:34:48.862Z,85.60
2023-02-19T00:35:11.549Z,84.90
2023-02-19T00:35:34.833Z,99.90
2023-02-19T00:36:00.798Z,99.90
2023-02-19T00:36:23.816Z,99.90
2023-02-19T00:36:46.594Z,99.90
2023-02-19T00:37:09.281Z,99.90
2023-02-19T00:37:32.029Z,99.90
2023-02-19T00:37:54.775Z,99.90
2023-02-19T00:38:17.561Z,99.90
2023-02-19T00:38:41.032Z,99.90
2023-02-19T00:39:03.934Z,99.90
2023-02-19T00:39:29.188Z,99.90
2023-02-19T00:39:51.921Z,99.90
2023-02-19T00:40:14.889Z,99.90
2023-02-19T00:40:38.794Z,99.90
2023-02-19T00:41:01.721Z,99.90
2023-02-19T00:41:24.651Z,99.90
2023-02-19T00:41:47.412Z,99.90
2023-02-19T00:42:10.253Z,99.90
2023-02-19T00:42:32.970Z,99.90
2023-02-19T00:42:55.697Z,99.90
2023-02-19T00:43:18.571Z,99.90
2023-02-19T00:43:41.323Z,99.90
2023-02-19T00:44:05.169Z,99.90
2023-02-19T00:44:28.026Z,99.90
2023-02-19T00:44:50.729Z,99.90
2023-02-19T00:45:13.935Z,99.90
2023-02-19T00:45:36.765Z,99.90
2023-02-19T00:45:59.485Z,99.90
2023-02-19T00:46:23.773Z,99.90
2023-02-19T00:46:47.848Z,99.90
2023-02-19T00:47:10.615Z,99.90
2023-02-19T00:47:33.542Z,99.90
2023-02-19T00:47:56.367Z,99.90
2023-02-19T00:48:19.102Z,99.90
2023-02-19T00:48:41.777Z,99.90
2023-02-19T00:49:04.680Z,99.90
2023-02-19T00:49:27.380Z,99.90
2023-02-19T00:49:51.597Z,99.90
2023-02-19T00:50:14.391Z,99.90
2023-02-19T00:50:37.252Z,99.90
2023-02-19T00:51:00.016Z,1.00
2023-02-19T00:51:23.500Z,1.00
2023-02-19T00:51:46.410Z,1.00
2023-02-19T00:52:09.186Z,1.00
2023-02-19T00:52:32.015Z,99.90
2023-02-19T00:52:54.787Z,99.90
2023-02-19T00:53:17.607Z,99.90
2023-02-19T00:53:40.340Z,99.90
2023-02-19T00:54:03.305Z,99.90
2023-02-19T00:54:26.058Z,99.90
2023-02-19T00:54:48.786Z,99.90
2023-02-19T00:55:11.533Z,99.90
2023-02-19T00:55:34.277Z,99.90
2023-02-19T00:55:56.997Z,99.90
2023-02-19T00:56:19.835Z,99.90
2023-02-19T00:56:42.590Z,99.90
2023-02-19T00:57:06.731Z,99.90
2023-02-19T00:57:29.312Z,99.90
2023-02-19T00:57:52.061Z,99.90
2023-02-19T00:58:14.802Z,99.90
2023-02-19T00:58:37.613Z,99.90
2023-02-19T00:59:00.808Z,99.90
2023-02-19T00:59:23.455Z,99.90
2023-02-19T00:59:46.326Z,99.90
2023-02-19T01:00:11.206Z,99.90
2023-02-19T01:00:34.088Z,99.90
2023-02-19T01:00:56.882Z,99.90
2023-02-19T01:01:20.826Z,99.90
2023-02-19T01:01:44.734Z,99.90
2023-02-19T01:02:07.942Z,99.90
2023-02-19T01:02:30.683Z,99.90
2023-02-19T01:02:53.511Z,99.90
2023-02-19T01:03:16.312Z,99.90
2023-02-19T01:03:39.376Z,99.90
2023-02-19T01:04:02.090Z,99.90
2023-02-19T01:04:24.911Z,99.90
2023-02-19T01:04:47.764Z,99.90
2023-02-19T01:05:13.018Z,99.90
2023-02-19T01:05:35.736Z,1.00
2023-02-19T01:05:58.515Z,99.90
2023-02-19T01:06:21.511Z,99.90
2023-02-19T01:06:44.225Z,99.90
2023-02-19T01:07:07.955Z,99.90
2023-02-19T01:07:31.987Z,1.00
2023-02-19T01:07:54.727Z,1.00
2023-02-19T01:08:17.470Z,1.00
2023-02-19T01:08:40.164Z,1.00
2023-02-19T01:09:02.858Z,93.70
2023-02-19T01:09:25.577Z,18.10
2023-02-19T01:09:48.422Z,99.90
2023-02-19T01:10:11.279Z,99.90
2023-02-19T01:10:34.022Z,63.70
2023-02-19T01:10:56.772Z,13.90
2023-02-19T01:11:20.549Z,1.00
2023-02-19T01:11:43.372Z,1.00
2023-02-19T01:12:06.484Z,1.00
2023-02-19T01:12:29.313Z,1.00
2023-02-19T01:12:51.975Z,1.00
2023-02-19T01:13:14.758Z,99.90
2023-02-19T01:13:37.501Z,99.90
2023-02-19T01:14:00.304Z,99.90
2023-02-19T01:14:23.006Z,99.90
2023-02-19T01:14:45.912Z,99.90
2023-02-19T01:15:09.606Z,99.90
2023-02-19T01:15:33.266Z,99.90
2023-02-19T01:16:02.529Z,99.90
2023-02-19T01:16:25.395Z,99.90
2023-02-19T01:16:48.110Z,99.90
2023-02-19T01:17:10.820Z,99.90
2023-02-19T01:17:35.485Z,99.90
2023-02-19T01:18:00.757Z,99.90
2023-02-19T01:18:23.510Z,1.00
2023-02-19T01:18:46.626Z,1.00
2023-02-19T01:19:11.815Z,1.00
2023-02-19T01:19:34.492Z,99.90
2023-02-19T01:19:57.244Z,99.90
2023-02-19T01:20:21.504Z,99.90
2023-02-19T01:20:44.780Z,1.00
2023-02-19T01:21:08.129Z,1.00
2023-02-19T01:21:31.283Z,1.00
2023-02-19T01:21:54.011Z,1.00
2023-02-19T01:22:19.171Z,1.00
2023-02-19T01:22:41.831Z,1.00
2023-02-19T01:23:04.481Z,1.00
2023-02-19T01:23:27.300Z,1.00
2023-02-19T01:23:50.019Z,1.00
2023-02-19T01:24:12.693Z,1.00
2023-02-19T01:24:35.445Z,1.00
2023-02-19T01:25:00.632Z,1.00
2023-02-19T01:25:23.491Z,99.90
2023-02-19T01:25:46.236Z,99.90
2023-02-19T01:26:10.885Z,1.00
2023-02-19T01:26:33.776Z,1.00
2023-02-19T01:26:56.485Z,1.00
2023-02-19T01:27:19.208Z,1.00
2023-02-19T01:27:41.933Z,1.00
2023-02-19T01:28:04.786Z,1.00
2023-02-19T01:28:27.646Z,1.00
2023-02-19T01:28:50.339Z,1.00
2023-02-19T01:29:13.105Z,99.90
2023-02-19T01:29:36.090Z,99.90
2023-02-19T01:29:58.766Z,99.90
2023-02-19T01:30:21.645Z,99.90
2023-02-19T01:30:44.399Z,99.90
2023-02-19T01:31:08.855Z,99.90
2023-02-19T01:31:32.228Z,99.90
2023-02-19T01:31:55.084Z,99.90
2023-02-19T01:32:17.982Z,99.90
2023-02-19T01:32:40.728Z,99.90
2023-02-19T01:33:04.194Z,99.90
2023-02-19T01:33:26.910Z,99.90
2023-02-19T01:33:51.154Z,99.90
2023-02-19T01:34:14.969Z,99.90
2023-02-19T01:34:37.646Z,59.70
2023-02-19T01:35:00.360Z,33.00
2023-02-19T01:35:24.657Z,77.40
2023-02-19T01:35:47.365Z,77.50
2023-02-19T01:36:11.750Z,99.90
2023-02-19T01:36:34.830Z,54.70
2023-02-19T01:36:57.530Z,80.10
2023-02-19T01:37:20.440Z,59.10
2023-02-19T01:37:43.197Z,99.90
2023-02-19T01:38:07.853Z,99.90
2023-02-19T01:38:30.654Z,99.90
2023-02-19T01:38:53.615Z,99.90
2023-02-19T01:39:16.286Z,99.90
2023-02-19T01:39:39.107Z,99.90
2023-02-19T01:40:01.834Z,99.90
2023-02-19T01:40:24.587Z,99.90
2023-02-19T01:40:55.125Z,99.90
2023-02-19T01:41:18.882Z,99.90
2023-02-19T01:41:42.054Z,99.90
2023-02-19T01:42:05.172Z,99.90
2023-02-19T01:42:27.937Z,99.90
2023-02-19T01:42:50.670Z,99.90
2023-02-19T01:43:16.028Z,99.90
2023-02-19T01:43:55.420Z,99.90
2023-02-19T01:44:54.927Z,99.90
2023-02-19T01:45:28.851Z,99.90
2023-02-19T01:45:51.594Z,99.90
2023-02-19T01:46:14.357Z,99.90
2023-02-19T01:46:37.704Z,99.90
2023-02-19T01:47:00.647Z,99.90
2023-02-19T01:47:23.476Z,99.90
2023-02-19T01:47:46.562Z,99.90
2023-02-19T01:48:10.931Z,99.90
2023-02-19T01:48:34.895Z,99.90
2023-02-19T01:48:58.875Z,99.90
2023-02-19T01:49:23.524Z,99.90
2023-02-19T01:49:50.283Z,99.90
2023-02-19T01:50:13.198Z,99.90
2023-02-19T01:50:40.379Z,99.90
2023-02-19T01:51:04.467Z,1.00
2023-02-19T01:51:27.870Z,1.00
2023-02-19T01:51:53.316Z,1.00
2023-02-19T01:52:17.608Z,1.00
2023-02-19T01:52:40.342Z,99.90
2023-02-19T01:53:05.457Z,1.00
2023-02-19T01:53:29.632Z,1.00
2023-02-19T01:53:55.065Z,1.00
2023-02-19T01:54:20.177Z,99.90
2023-02-19T01:54:43.534Z,99.90
2023-02-19T01:55:07.685Z,99.90
2023-02-19T01:55:30.437Z,99.90
2023-02-19T01:55:54.293Z,99.90
2023-02-19T01:56:17.119Z,99.90
2023-02-19T01:56:40.659Z,99.90
2023-02-19T01:57:04.338Z,1.00
2023-02-19T01:57:28.648Z,1.00
2023-02-19T01:57:52.972Z,1.00
2023-02-19T01:58:15.838Z,99.90
2023-02-19T01:58:38.573Z,99.90
2023-02-19T01:59:01.988Z,99.90
2023-02-19T01:59:24.713Z,99.90
2023-02-19T01:59:47.450Z,99.90
2023-02-19T02:00:12.323Z,99.90
2023-02-19T02:00:35.181Z,99.90
2023-02-19T02:00:58.138Z,99.90
2023-02-19T02:01:20.809Z,99.90
2023-02-19T02:01:44.075Z,70.70
2023-02-19T02:02:06.894Z,51.80
2023-02-19T02:02:29.703Z,1.00
2023-02-19T02:02:53.235Z,1.00
2023-02-19T02:03:16.659Z,1.00
2023-02-19T02:03:40.506Z,1.00
2023-02-19T02:04:03.273Z,1.00
2023-02-19T02:04:28.419Z,1.00
2023-02-19T02:04:51.218Z,1.00
2023-02-19T02:05:18.192Z,1.00
2023-02-19T02:05:50.144Z,1.00
2023-02-19T02:06:14.263Z,1.00
2023-02-19T02:06:39.684Z,10.70
2023-02-19T02:07:03.711Z,38.40
2023-02-19T02:07:45.263Z,76.10
2023-02-19T02:08:26.443Z,99.90
2023-02-19T02:09:09.298Z,34.50
2023-02-19T02:09:50.595Z,48.80
2023-02-19T02:10:22.600Z,18.00
2023-02-19T02:10:45.388Z,37.50
2023-02-19T02:11:08.263Z,1.00
2023-02-19T02:11:31.564Z,1.00
2023-02-19T02:11:54.741Z,1.00
2023-02-19T02:12:17.364Z,1.00
2023-02-19T02:12:40.190Z,1.00
2023-02-19T02:13:02.917Z,1.00
2023-02-19T02:13:25.568Z,1.00
2023-02-19T02:13:48.321Z,1.00
2023-02-19T02:14:11.054Z,1.00
2023-02-19T02:14:35.217Z,1.00
2023-02-19T02:14:57.934Z,26.70
2023-02-19T02:15:22.461Z,57.10
2023-02-19T02:15:50.960Z,89.30
2023-02-19T02:16:20.660Z,11.30
2023-02-19T02:16:47.410Z,1.00
2023-02-19T02:17:13.772Z,1.00
2023-02-19T02:17:39.870Z,1.00
2023-02-19T02:18:05.418Z,1.00
2023-02-19T02:18:33.126Z,1.00
2023-02-19T02:19:00.567Z,1.00
2023-02-19T02:19:40.466Z,1.00
2023-02-19T02:20:15.419Z,1.00
2023-02-19T02:20:51.536Z,1.00
2023-02-19T02:21:47.043Z,1.00
2023-02-19T02:22:12.638Z,99.90
2023-02-19T02:22:36.909Z,99.90
2023-02-19T02:23:01.438Z,99.90
2023-02-19T02:23:30.251Z,99.90
2023-02-19T02:24:03.254Z,99.90
2023-02-19T02:24:52.138Z,99.90
2023-02-19T02:25:35.554Z,99.90
2023-02-19T02:26:08.590Z,99.90
2023-02-19T02:26:42.316Z,99.90
2023-02-19T02:27:17.515Z,99.90
2023-02-19T02:27:44.166Z,99.90
2023-02-19T02:28:17.396Z,99.90
2023-02-19T02:29:15.005Z,99.90
2023-02-19T02:30:07.067Z,1.00
2023-02-19T02:30:36.911Z,1.00
2023-02-19T02:30:59.675Z,1.00
2023-02-19T02:31:23.488Z,1.00
2023-02-19T02:31:47.775Z,41.10
2023-02-19T02:32:11.415Z,99.90
2023-02-19T02:32:35.706Z,99.90
2023-02-19T02:33:01.270Z,99.90
2023-02-19T02:33:28.968Z,99.90
2023-02-19T02:33:54.786Z,99.90
2023-02-19T02:34:19.391Z,99.90
2023-02-19T02:34:45.762Z,1.00
2023-02-19T02:35:09.782Z,1.00
2023-02-19T02:35:35.074Z,1.00
2023-02-19T02:35:59.104Z,1.00
2023-02-19T02:36:24.812Z,1.00
2023-02-19T02:36:50.047Z,36.80
2023-02-19T02:37:12.804Z,81.90
2023-02-19T02:37:36.768Z,99.90
2023-02-19T02:38:02.882Z,99.90
2023-02-19T02:38:28.343Z,99.90
2023-02-19T02:38:52.986Z,99.90
2023-02-19T02:39:17.756Z,99.90
2023-02-19T02:39:40.483Z,99.90
2023-02-19T02:40:03.491Z,99.90
2023-02-19T02:40:26.242Z,99.90
2023-02-19T02:40:49.001Z,99.90
2023-02-19T02:41:12.439Z,99.90
2023-02-19T02:41:35.531Z,99.90
2023-02-19T02:42:17.782Z,99.90
2023-02-19T02:42:40.531Z,67.20
2023-02-19T02:43:03.283Z,1.00
2023-02-19T02:43:26.094Z,1.00
2023-02-19T02:43:48.878Z,1.00
2023-02-19T02:44:14.882Z,1.00
2023-02-19T02:44:41.763Z,1.00
2023-02-19T02:45:37.716Z,1.00
2023-02-19T02:46:00.613Z,1.00
2023-02-19T02:46:24.708Z,1.00
2023-02-19T02:46:47.564Z,1.00
2023-02-19T02:47:30.245Z,1.00
2023-02-19T02:47:54.392Z,1.00
2023-02-19T02:48:21.456Z,1.00
2023-02-19T02:48:45.474Z,1.00
2023-02-19T02:49:11.096Z,82.10
2023-02-19T02:49:33.962Z,99.90
2023-02-19T02:50:05.544Z,98.20
2023-02-19T02:50:29.771Z,99.90
2023-02-19T02:50:55.526Z,99.90
2023-02-19T02:51:20.102Z,99.90
2023-02-19T02:51:44.960Z,1.00
2023-02-19T02:52:27.652Z,1.00
2023-02-19T02:53:10.626Z,1.00
2023-02-19T02:53:53.830Z,1.00
2023-02-19T02:54:34.394Z,1.00
2023-02-19T02:55:03.165Z,1.00
2023-02-19T02:55:26.086Z,11.60
2023-02-19T02:55:50.424Z,9.60
2023-02-19T02:56:14.106Z,1.00
2023-02-19T02:56:36.849Z,8.60
2023-02-19T02:56:59.641Z,1.00
2023-02-19T02:57:22.375Z,1.00
2023-02-19T02:57:45.165Z,11.90
2023-02-19T02:58:08.181Z,31.40
2023-02-19T02:58:30.897Z,1.00
2023-02-19T02:58:53.619Z,3.20
2023-02-19T02:59:18.144Z,1.00
2023-02-19T02:59:40.875Z,1.00
2023-02-19T03:00:06.817Z,1.00
2023-02-19T03:00:51.994Z,1.00
2023-02-19T03:01:35.776Z,4.00
2023-02-19T03:02:12.475Z,99.90
2023-02-19T03:02:35.376Z,99.90
2023-02-19T03:02:58.142Z,99.90
2023-02-19T03:03:22.037Z,99.90
2023-02-19T03:03:45.661Z,99.90
2023-02-19T03:04:09.936Z,99.90
2023-02-19T03:04:35.471Z,99.90
2023-02-19T03:05:21.439Z,99.90
2023-02-19T03:05:53.463Z,99.90
2023-02-19T03:06:17.033Z,99.90
2023-02-19T03:06:39.786Z,99.90
2023-02-19T03:07:06.011Z,99.90
2023-02-19T03:07:30.406Z,99.90
2023-02-19T03:07:54.720Z,99.90
2023-02-19T03:08:18.901Z,99.90
2023-02-19T03:08:42.828Z,99.90
2023-02-19T03:09:09.854Z,99.90
2023-02-19T03:09:35.062Z,99.90
2023-02-19T03:09:58.221Z,99.90
2023-02-19T03:10:22.666Z,99.90
2023-02-19T03:10:47.813Z,99.90
2023-02-19T03:11:29.672Z,99.90
2023-02-19T03:12:10.729Z,99.90
2023-02-19T03:12:52.302Z,99.90
2023-02-19T03:13:35.486Z,99.90
2023-02-19T03:14:19.700Z,99.90
2023-02-19T03:15:04.427Z,99.90
2023-02-19T03:15:47.061Z,99.90
2023-02-19T03:16:32.533Z,99.90
2023-02-19T03:17:20.112Z,99.90
2023-02-19T03:18:05.566Z,99.90
2023-02-19T03:18:47.151Z,99.90
2023-02-19T03:19:20.642Z,99.90
2023-02-19T03:19:44.809Z,99.90
2023-02-19T03:20:09.926Z,99.90
2023-02-19T03:20:36.169Z,99.90
2023-02-19T03:20:59.696Z,99.90
2023-02-19T03:21:22.402Z,99.90
2023-02-19T03:21:46.905Z,99.90
2023-02-19T03:22:12.492Z,99.90
2023-02-19T03:22:36.501Z,99.90
2023-02-19T03:22:59.180Z,99.90
2023-02-19T03:23:22.086Z,99.90
2023-02-19T03:24:03.689Z,99.90
2023-02-19T03:24:47.198Z,99.90
2023-02-19T03:25:30.426Z,99.90
2023-02-19T03:26:05.293Z,99.90
2023-02-19T03:26:28.024Z,99.90
2023-02-19T03:26:54.290Z,99.90
2023-02-19T03:27:17.540Z,99.90
2023-02-19T03:27:41.146Z,99.90
2023-02-19T03:28:05.440Z,99.90
2023-02-19T03:28:48.187Z,99.90
2023-02-19T03:29:23.274Z,99.90
2023-02-19T03:29:46.307Z,99.90
2023-02-19T03:30:11.923Z,99.90
2023-02-19T03:30:36.513Z,99.90
2023-02-19T03:30:59.185Z,99.90
2023-02-19T03:31:24.254Z,99.90
2023-02-19T03:31:47.123Z,99.90
2023-02-19T03:32:11.674Z,99.90
2023-02-19T03:32:36.539Z,99.90
2023-02-19T03:33:00.471Z,99.90
2023-02-19T03:33:24.163Z,99.90
2023-02-19T03:33:50.402Z,99.90
2023-02-19T03:34:15.445Z,99.90
2023-02-19T03:34:43.201Z,99.90
2023-02-19T03:35:08.839Z,99.90
2023-02-19T03:35:32.502Z,99.90
2023-02-19T03:35:57.420Z,98.90
2023-02-19T03:36:25.808Z,99.90
2023-02-19T03:36:53.850Z,99.90
2023-02-19T03:37:17.447Z,99.90
2023-02-19T03:37:42.495Z,99.90
2023-02-19T03:38:07.224Z,99.90
2023-02-19T03:38:32.406Z,99.90
2023-02-19T03:38:58.932Z,99.90
2023-02-19T03:39:22.572Z,20.60
2023-02-19T03:39:45.372Z,4.60
2023-02-19T03:40:09.685Z,1.00
2023-02-19T03:40:34.635Z,1.00
2023-02-19T03:41:00.438Z,1.00
2023-02-19T03:41:25.879Z,1.00
2023-02-19T03:41:53.662Z,1.00
2023-02-19T03:42:21.522Z,1.00
2023-02-19T03:42:46.712Z,1.00
2023-02-19T03:43:16.377Z,1.00
2023-02-19T03:43:41.241Z,1.00
2023-02-19T03:44:07.847Z,1.00
2023-02-19T03:44:36.467Z,1.00
2023-02-19T03:45:08.323Z,1.00
2023-02-19T03:45:36.755Z,1.00
2023-02-19T03:46:03.058Z,14.10
2023-02-19T03:46:29.921Z,1.00
2023-02-19T03:46:55.020Z,1.00
2023-02-19T03:47:19.703Z,1.00
2023-02-19T03:47:45.930Z,1.00
2023-02-19T03:48:19.067Z,1.00
2023-02-19T03:48:45.452Z,1.00
2023-02-19T03:49:11.023Z,1.00
2023-02-19T03:49:38.526Z,1.00
2023-02-19T03:50:03.185Z,1.00
2023-02-19T03:50:27.712Z,22.20
2023-02-19T03:50:55.347Z,55.70
2023-02-19T03:51:31.078Z,99.90
2023-02-19T03:51:55.557Z,99.90
2023-02-19T03:52:24.192Z,99.90
2023-02-19T03:52:52.637Z,99.90
2023-02-19T03:53:18.626Z,99.90
2023-02-19T03:53:49.518Z,99.90
2023-02-19T03:54:13.256Z,99.90
2023-02-19T03:54:38.101Z,74.20
2023-02-19T03:55:03.376Z,33.50
2023-02-19T03:55:28.392Z,5.70
2023-02-19T03:55:54.306Z,1.00
2023-02-19T03:56:18.958Z,1.00
2023-02-19T03:56:44.491Z,1.00
2023-02-19T03:57:11.050Z,1.00
2023-02-19T03:57:39.635Z,6.90
2023-02-19T03:58:05.453Z,1.00
2023-02-19T03:58:30.544Z,1.00
2023-02-19T03:58:57.061Z,1.00
2023-02-19T03:59:21.280Z,1.00
2023-02-19T03:59:46.878Z,1.00
2023-02-19T04:00:11.536Z,1.00
2023-02-19T04:00:37.744Z,1.00
2023-02-19T04:01:04.026Z,1.00
2023-02-19T04:01:31.616Z,17.50
2023-02-19T04:01:55.562Z,45.00
2023-02-19T04:02:19.726Z,56.70
2023-02-19T04:02:44.810Z,99.90
2023-02-19T04:03:09.483Z,99.90
2023-02-19T04:03:34.497Z,99.90
2023-02-19T04:03:59.032Z,99.90
2023-02-19T04:04:24.068Z,99.90
2023-02-19T04:04:49.595Z,99.90
2023-02-19T04:05:14.259Z,99.90
2023-02-19T04:05:40.243Z,99.90
2023-02-19T04:06:04.658Z,99.90
2023-02-19T04:06:29.434Z,99.90
2023-02-19T04:06:54.495Z,99.90
2023-02-19T04:07:17.267Z,99.90
2023-02-19T04:07:42.179Z,99.90
2023-02-19T04:08:09.138Z,99.90
2023-02-19T04:08:32.029Z,99.90
2023-02-19T04:08:56.933Z,99.90
2023-02-19T04:09:19.646Z,99.90
2023-02-19T04:09:44.018Z,99.90
2023-02-19T04:10:07.083Z,99.90
2023-02-19T04:10:29.958Z,99.90
2023-02-19T04:10:52.603Z,99.90
2023-02-19T04:11:15.992Z,99.90
2023-02-19T04:11:38.912Z,99.90
2023-02-19T04:12:01.746Z,99.90
2023-02-19T04:12:24.488Z,99.90
2023-02-19T04:12:49.911Z,99.90
2023-02-19T04:13:18.483Z,1.00
2023-02-19T04:13:44.107Z,1.00
2023-02-19T04:14:08.938Z,99.90
2023-02-19T04:14:33.598Z,1.00
2023-02-19T04:15:01.060Z,1.00
2023-02-19T04:15:25.783Z,99.90
2023-02-19T04:15:48.978Z,99.90
2023-02-19T04:16:15.430Z,99.90
2023-02-19T04:16:40.715Z,99.90
2023-02-19T04:17:05.641Z,99.90
2023-02-19T04:17:29.937Z,99.90
2023-02-19T04:17:55.716Z,99.90
2023-02-19T04:18:19.964Z,99.90
2023-02-19T04:18:42.729Z,99.90
2023-02-19T04:19:08.049Z,99.90
2023-02-19T04:19:31.892Z,99.90
2023-02-19T04:19:54.488Z,99.90
2023-02-19T04:20:17.320Z,99.90
2023-02-19T04:20:41.343Z,99.90
2023-02-19T04:21:04.300Z,99.90
2023-02-19T04:21:27.134Z,99.90
2023-02-19T04:21:49.932Z,99.90
2023-02-19T04:22:12.713Z,99.90
2023-02-19T04:22:36.552Z,99.90
2023-02-19T04:22:59.297Z,99.90
2023-02-19T04:23:23.646Z,99.90
2023-02-19T04:23:46.483Z,99.90
2023-02-19T04:24:11.942Z,1.00
2023-02-19T04:24:37.466Z,1.00
2023-02-19T04:25:00.994Z,1.00
2023-02-19T04:25:24.389Z,1.00
2023-02-19T04:25:48.974Z,1.00
2023-02-19T04:26:11.694Z,1.00
2023-02-19T04:26:35.133Z,15.40
2023-02-19T04:26:57.949Z,37.90
2023-02-19T04:27:20.701Z,84.50
2023-02-19T04:27:44.379Z,99.90
2023-02-19T04:28:07.811Z,99.90
2023-02-19T04:28:30.692Z,99.90
2023-02-19T04:28:54.224Z,99.90
2023-02-19T04:29:16.928Z,99.90
2023-02-19T04:29:39.746Z,99.90
2023-02-19T04:30:02.422Z,99.90
2023-02-19T04:30:25.542Z,99.90
2023-02-19T04:30:48.313Z,41.90
2023-02-19T04:31:11.351Z,34.90
2023-02-19T04:31:35.942Z,8.20
2023-02-19T04:32:00.166Z,1.90
2023-02-19T04:32:22.807Z,13.20
2023-02-19T04:32:45.641Z,42.50
2023-02-19T04:33:08.352Z,52.30
2023-02-19T04:33:31.095Z,70.20
2023-02-19T04:33:53.900Z,99.90
2023-02-19T04:34:16.574Z,99.90
2023-02-19T04:34:39.369Z,99.90
2023-02-19T04:35:05.229Z,99.90
2023-02-19T04:35:27.870Z,97.90
2023-02-19T04:35:50.588Z,98.30
2023-02-19T04:36:14.478Z,48.20
2023-02-19T04:36:37.179Z,44.60
2023-02-19T04:36:59.902Z,37.80
2023-02-19T04:37:22.663Z,35.60
2023-02-19T04:37:45.363Z,72.50
2023-02-19T04:38:08.166Z,97.50
2023-02-19T04:38:30.919Z,99.90
2023-02-19T04:38:53.742Z,99.90
2023-02-19T04:39:16.561Z,99.90
2023-02-19T04:39:39.291Z,99.90
2023-02-19T04:40:01.988Z,99.90
2023-02-19T04:40:24.813Z,99.90
2023-02-19T04:40:47.667Z,99.90
2023-02-19T04:41:10.646Z,99.90
2023-02-19T04:41:33.658Z,99.90
2023-02-19T04:41:56.354Z,99.90
2023-02-19T04:42:19.037Z,99.90
2023-02-19T04:42:41.798Z,99.90
2023-02-19T04:43:04.469Z,99.90
2023-02-19T04:43:27.227Z,99.90
2023-02-19T04:43:50.083Z,99.90
2023-02-19T04:44:12.927Z,99.90
2023-02-19T04:44:35.677Z,99.90
2023-02-19T04:44:58.418Z,99.90
2023-02-19T04:45:21.232Z,99.90
2023-02-19T04:45:44.151Z,99.90
2023-02-19T04:46:07.030Z,99.90
2023-02-19T04:46:29.825Z,99.90
2023-02-19T04:46:52.613Z,99.90
2023-02-19T04:47:17.945Z,99.90
2023-02-19T04:47:40.619Z,99.90
2023-02-19T04:48:03.403Z,99.90
2023-02-19T04:48:26.128Z,99.90
2023-02-19T04:48:48.807Z,99.90
2023-02-19T04:49:11.567Z,99.90
2023-02-19T04:49:34.268Z,99.90
2023-02-19T04:49:56.978Z,99.90
2023-02-19T04:50:19.843Z,99.90
2023-02-19T04:50:42.491Z,99.90
2023-02-19T04:51:07.051Z,93.70
2023-02-19T04:51:29.800Z,99.90
2023-02-19T04:51:52.481Z,99.90
2023-02-19T04:52:15.217Z,47.60
2023-02-19T04:52:37.976Z,1.00
2023-02-19T04:53:00.654Z,1.00
2023-02-19T04:53:23.351Z,1.00
2023-02-19T04:53:46.070Z,1.00
2023-02-19T04:54:08.813Z,1.00
2023-02-19T04:54:31.568Z,1.00
2023-02-19T04:54:54.410Z,1.00
2023-02-19T04:55:17.437Z,1.00
2023-02-19T04:55:40.213Z,9.30
2023-02-19T04:56:07.188Z,69.80
2023-02-19T04:56:30.037Z,99.90
2023-02-19T04:56:52.926Z,99.90
2023-02-19T04:57:15.667Z,99.90
2023-02-19T04:57:38.422Z,99.90
2023-02-19T04:58:01.121Z,99.90
2023-02-19T04:58:24.090Z,99.90
2023-02-19T04:58:46.881Z,99.90
2023-02-19T04:59:09.606Z,99.90
2023-02-19T04:59:32.360Z,99.90
2023-02-19T04:59:55.055Z,99.90
2023-02-19T05:00:17.880Z,99.90
2023-02-19T05:00:40.575Z,99.90
2023-02-19T05:01:03.389Z,99.90
2023-02-19T05:01:26.285Z,99.90
2023-02-19T05:01:48.973Z,99.90
2023-02-19T05:02:11.682Z,99.90
2023-02-19T05:02:38.651Z,99.90
2023-02-19T05:03:01.597Z,99.90
2023-02-19T05:03:24.758Z,99.90
2023-02-19T05:03:47.602Z,99.90
2023-02-19T05:04:10.555Z,99.90
2023-02-19T05:04:33.592Z,38.70
2023-02-19T05:04:56.422Z,1.00
2023-02-19T05:05:19.162Z,1.00
2023-02-19T05:05:41.906Z,1.00
2023-02-19T05:06:04.975Z,1.00
2023-02-19T05:06:27.755Z,1.00
2023-02-19T05:06:50.450Z,13.20
2023-02-19T05:07:13.131Z,13.60
2023-02-19T05:07:35.875Z,19.00
2023-02-19T05:07:58.582Z,1.00
2023-02-19T05:08:21.297Z,1.00
2023-02-19T05:08:44.165Z,1.00
2023-02-19T05:09:06.886Z,1.00
2023-02-19T05:09:29.614Z,1.00
2023-02-19T05:09:52.470Z,1.00
2023-02-19T05:10:15.259Z,1.00
2023-02-19T05:10:40.330Z,1.00
2023-02-19T05:11:03.858Z,1.00
2023-02-19T05:11:26.898Z,1.00
2023-02-19T05:11:49.627Z,1.00
2023-02-19T05:12:12.346Z,1.00
2023-02-19T05:12:35.041Z,1.00
2023-02-19T05:12:58.197Z,1.00
2023-02-19T05:13:20.946Z,1.00
2023-02-19T05:13:43.706Z,1.00
2023-02-19T05:14:06.561Z,1.00
2023-02-19T05:14:29.246Z,1.00
2023-02-19T05:14:52.043Z,1.00
2023-02-19T05:15:14.990Z,1.00
2023-02-19T05:15:37.806Z,1.00
2023-02-19T05:16:01.344Z,1.00
2023-02-19T05:16:24.197Z,1.00
2023-02-19T05:16:47.784Z,1.00
2023-02-19T05:17:10.492Z,1.00
2023-02-19T05:17:34.592Z,1.00
2023-02-19T05:17:58.773Z,1.00
2023-02-19T05:18:21.542Z,1.00
2023-02-19T05:18:47.643Z,1.00
2023-02-19T05:19:11.560Z,1.00
2023-02-19T05:19:34.271Z,20.40
2023-02-19T05:19:56.972Z,7.10
2023-02-19T05:20:19.962Z,99.90
2023-02-19T05:20:42.726Z,99.90
2023-02-19T05:21:05.858Z,99.90
2023-02-19T05:21:28.500Z,99.90
2023-02-19T05:21:51.204Z,99.90
2023-02-19T05:22:13.922Z,99.90
2023-02-19T05:22:36.547Z,96.70
2023-02-19T05:23:02.569Z,7.30
2023-02-19T05:23:25.452Z,1.00
2023-02-19T05:23:48.131Z,5.80
2023-02-19T05:24:11.018Z,9.00
2023-02-19T05:24:33.783Z,66.50
2023-02-19T05:24:56.474Z,99.90
2023-02-19T05:25:19.150Z,99.90